createdAt,value
2022-11-14T00:00:00.659Z,57.07
2022-11-14T00:02:02.364Z,52.57
2022-11-14T00:04:04.160Z,53.80
2022-11-14T00:06:07.229Z,59.23
2022-11-14T00:08:21.513Z,58.10
2022-11-14T00:10:23.478Z,54.70
2022-11-14T00:12:25.332Z,52.17
2022-11-14T00:14:27.093Z,51.70
2022-11-14T00:16:28.720Z,44.37
2022-11-14T00:18:30.615Z,58.97
2022-11-14T00:20:33.196Z,56.27
2022-11-14T00:22:35.071Z,53.57
2022-11-14T00:24:36.708Z,54.20
2022-11-14T00:26:38.364Z,53.37
2022-11-14T00:28:39.981Z,51.53
2022-11-14T00:30:41.845Z,47.67
2022-11-14T00:32:43.555Z,47.33
2022-11-14T00:34:45.268Z,49.80
2022-11-14T00:36:46.887Z,53.30
2022-11-14T00:38:52.021Z,46.77
2022-11-14T00:40:53.610Z,47.67
2022-11-14T00:42:55.233Z,48.20
2022-11-14T00:44:56.966Z,49.23
2022-11-14T00:46:58.656Z,53.37
2022-11-14T00:49:00.282Z,50.80
2022-11-14T00:51:01.945Z,48.63
2022-11-14T00:53:03.915Z,51.70
2022-11-14T00:55:06.257Z,51.77
2022-11-14T00:57:08.048Z,48.90
2022-11-14T00:59:09.685Z,51.20
2022-11-14T01:01:11.370Z,43.50
2022-11-14T01:03:13.175Z,51.93
2022-11-14T01:05:14.856Z,45.10
2022-11-14T01:07:16.604Z,46.00
2022-11-14T01:09:18.454Z,52.30
2022-11-14T01:11:21.813Z,55.13
2022-11-14T01:13:23.575Z,53.80
2022-11-14T01:15:25.334Z,55.37
2022-11-14T01:17:28.561Z,52.27
2022-11-14T01:19:30.205Z,53.70
2022-11-14T01:21:31.899Z,52.80
2022-11-14T01:23:33.697Z,55.90
2022-11-14T01:25:37.272Z,52.07
2022-11-14T01:27:38.994Z,48.30
2022-11-14T01:29:40.640Z,53.87
2022-11-14T01:31:42.487Z,46.57
2022-11-14T01:33:44.866Z,65.93
2022-11-14T01:35:46.527Z,56.93
2022-11-14T01:37:48.301Z,60.90
2022-11-14T01:39:49.928Z,62.03
2022-11-14T01:41:51.563Z,60.03
2022-11-14T01:43:53.172Z,56.67
2022-11-14T01:45:58.666Z,62.50
2022-11-14T01:48:00.311Z,70.57
2022-11-14T01:50:05.378Z,65.93
2022-11-14T01:52:10.788Z,62.10
2022-11-14T01:54:26.197Z,66.33
2022-11-14T01:56:37.675Z,58.80
2022-11-14T01:58:44.450Z,72.13
2022-11-14T02:00:46.071Z,77.60
2022-11-14T02:02:48.302Z,71.57
2022-11-14T02:04:55.708Z,60.87
2022-11-14T02:07:04.389Z,59.53
2022-11-14T02:09:07.876Z,71.23
2022-11-14T02:11:12.816Z,56.63
2022-11-14T02:13:14.573Z,118.47
2022-11-14T02:15:16.844Z,154.40
2022-11-14T02:17:34.975Z,139.43
2022-11-14T02:19:47.768Z,196.40
2022-11-14T02:21:49.428Z,85.53
2022-11-14T02:23:51.207Z,59.90
2022-11-14T02:25:52.972Z,57.50
2022-11-14T02:27:56.001Z,55.67
2022-11-14T02:30:17.140Z,48.97
2022-11-14T02:32:18.930Z,125.50
2022-11-14T02:34:20.646Z,83.57
2022-11-14T02:36:22.297Z,73.30
2022-11-14T02:38:23.950Z,52.87
2022-11-14T02:40:25.808Z,47.90
2022-11-14T02:42:27.631Z,51.17
2022-11-14T02:44:29.311Z,50.60
2022-11-14T02:46:30.972Z,45.20
2022-11-14T02:48:32.843Z,58.37
2022-11-14T02:50:34.719Z,49.77
2022-11-14T02:52:36.368Z,49.73
2022-11-14T02:54:37.963Z,48.87
2022-11-14T02:56:39.784Z,52.73
2022-11-14T02:58:41.478Z,51.60
2022-11-14T03:01:06.013Z,55.07
2022-11-14T03:03:04.913Z,64.93
2022-11-14T03:05:06.897Z,63.37
2022-11-14T03:07:08.630Z,58.47
2022-11-14T03:09:10.481Z,59.50
2022-11-14T03:11:12.096Z,59.93
2022-11-14T03:13:13.729Z,63.10
2022-11-14T03:15:15.498Z,61.30
2022-11-14T03:17:17.177Z,58.97
2022-11-14T03:19:19.449Z,58.63
2022-11-14T03:21:22.737Z,63.00
2022-11-14T03:23:24.368Z,63.13
2022-11-14T03:25:26.068Z,54.77
2022-11-14T03:27:27.759Z,63.90
2022-11-14T03:29:29.419Z,61.73
2022-11-14T03:31:31.036Z,51.87
2022-11-14T03:33:33.171Z,54.93
2022-11-14T03:35:34.998Z,57.33
2022-11-14T03:37:36.803Z,48.23
2022-11-14T03:39:38.506Z,49.30
2022-11-14T03:41:40.112Z,46.30
2022-11-14T03:43:41.741Z,47.73
2022-11-14T03:45:44.126Z,48.20
2022-11-14T03:47:45.747Z,43.57
2022-11-14T03:49:47.368Z,49.13
2022-11-14T03:51:49.228Z,42.87
2022-11-14T03:53:50.865Z,46.53
2022-11-14T03:55:52.870Z,47.33
2022-11-14T03:57:54.609Z,42.23
2022-11-14T03:59:56.329Z,37.10
2022-11-14T04:01:57.932Z,36.03
2022-11-14T04:03:59.615Z,40.90
2022-11-14T04:06:01.300Z,39.50
2022-11-14T04:08:05.673Z,35.60
2022-11-14T04:10:07.872Z,38.30
2022-11-14T04:12:14.436Z,32.67
2022-11-14T04:14:17.440Z,40.23
2022-11-14T04:16:19.462Z,35.87
2022-11-14T04:18:21.217Z,38.10
2022-11-14T04:20:22.851Z,32.90
2022-11-14T04:22:24.494Z,35.43
2022-11-14T04:24:26.151Z,36.93
2022-11-14T04:26:27.774Z,35.47
2022-11-14T04:28:29.826Z,35.33
2022-11-14T04:30:34.715Z,31.13
2022-11-14T04:32:36.656Z,33.57
2022-11-14T04:34:38.628Z,32.80
2022-11-14T04:36:40.440Z,33.70
2022-11-14T04:38:42.058Z,35.03
2022-11-14T04:40:53.534Z,32.63
2022-11-14T04:42:55.305Z,31.00
2022-11-14T04:44:57.022Z,28.07
2022-11-14T04:46:58.676Z,26.40
2022-11-14T04:49:00.428Z,28.80
2022-11-14T04:51:02.049Z,25.37
2022-11-14T04:53:03.925Z,19.67
2022-11-14T04:55:05.880Z,21.23
2022-11-14T04:57:07.531Z,24.50
2022-11-14T04:59:09.424Z,22.13
2022-11-14T05:01:13.246Z,24.10
2022-11-14T05:03:14.957Z,24.37
2022-11-14T05:05:16.963Z,24.57
2022-11-14T05:07:18.763Z,26.07
2022-11-14T05:09:20.442Z,26.93
2022-11-14T05:11:25.331Z,21.97
2022-11-14T05:13:30.984Z,22.37
2022-11-14T05:15:32.636Z,25.17
2022-11-14T05:17:34.333Z,18.07
2022-11-14T05:19:35.981Z,17.50
2022-11-14T05:21:37.575Z,19.67
2022-11-14T05:23:39.324Z,24.30
2022-11-14T05:25:40.975Z,18.90
2022-11-14T05:27:42.577Z,21.90
2022-11-14T05:29:44.216Z,19.80
2022-11-14T05:31:45.832Z,20.03
2022-11-14T05:33:48.034Z,19.63
2022-11-14T05:35:49.753Z,21.63
2022-11-14T05:37:54.872Z,20.00
2022-11-14T05:39:59.111Z,19.00
2022-11-14T05:42:00.750Z,17.00
2022-11-14T05:44:04.724Z,15.43
2022-11-14T05:46:09.778Z,17.00
2022-11-14T05:48:11.674Z,14.67
2022-11-14T05:50:13.332Z,14.03
2022-11-14T05:52:15.125Z,17.60
2022-11-14T05:54:16.777Z,13.87
2022-11-14T05:56:18.408Z,13.70
2022-11-14T05:58:20.039Z,15.67
2022-11-14T06:00:21.717Z,13.67
2022-11-14T06:02:23.466Z,14.17
2022-11-14T06:04:25.103Z,13.47
2022-11-14T06:06:26.725Z,13.23
2022-11-14T06:08:30.249Z,15.53
2022-11-14T06:10:34.771Z,12.80
2022-11-14T06:12:36.444Z,14.50
2022-11-14T06:14:38.072Z,15.20
2022-11-14T06:16:39.716Z,14.50
2022-11-14T06:18:41.968Z,13.40
2022-11-14T06:20:43.658Z,15.33
2022-11-14T06:22:45.311Z,13.30
2022-11-14T06:24:47.024Z,11.73
2022-11-14T06:26:48.651Z,10.60
2022-11-14T06:28:52.209Z,13.60
2022-11-14T06:30:58.832Z,12.53
2022-11-14T06:33:00.504Z,13.40
2022-11-14T06:35:02.160Z,17.20
2022-11-14T06:37:05.021Z,13.63
2022-11-14T06:39:06.748Z,12.23
2022-11-14T06:41:14.128Z,13.47
2022-11-14T06:43:15.823Z,14.03
2022-11-14T06:45:17.477Z,11.70
2022-11-14T06:47:19.104Z,12.73
2022-11-14T06:49:20.919Z,15.83
2022-11-14T06:51:22.528Z,14.20
2022-11-14T06:53:25.033Z,15.30
2022-11-14T06:55:26.674Z,11.50
2022-11-14T06:57:28.368Z,10.43
2022-11-14T06:59:30.148Z,11.87
2022-11-14T07:01:31.888Z,10.43
2022-11-14T07:03:33.743Z,13.30
2022-11-14T07:05:35.393Z,13.27
2022-11-14T07:07:37.113Z,13.70
2022-11-14T07:09:38.971Z,11.37
2022-11-14T07:11:40.728Z,17.43
2022-11-14T07:13:42.451Z,16.57
2022-11-14T07:16:02.982Z,10.73
2022-11-14T07:18:04.944Z,12.37
2022-11-14T07:20:07.294Z,12.57
2022-11-14T07:22:09.125Z,13.13
2022-11-14T07:24:10.776Z,11.83
2022-11-14T07:26:13.224Z,13.73
2022-11-14T07:28:15.067Z,11.40
2022-11-14T07:30:16.853Z,17.07
2022-11-14T07:32:18.495Z,17.43
2022-11-14T07:34:20.148Z,13.83
2022-11-14T07:36:22.999Z,12.30
2022-11-14T07:38:24.753Z,14.87
2022-11-14T07:40:26.723Z,13.47
2022-11-14T07:42:31.326Z,11.37
2022-11-14T07:44:33.059Z,14.30
2022-11-14T07:46:34.825Z,14.37
2022-11-14T07:48:36.651Z,10.83
2022-11-14T07:50:38.287Z,13.10
2022-11-14T07:52:39.947Z,11.87
2022-11-14T07:54:41.643Z,13.20
2022-11-14T07:56:43.220Z,10.80
2022-11-14T07:58:44.947Z,11.27
2022-11-14T08:00:46.732Z,12.87
2022-11-14T08:02:48.592Z,98.30
2022-11-14T08:04:50.240Z,16.67
2022-11-14T08:06:51.947Z,14.83
2022-11-14T08:08:53.591Z,11.90
2022-11-14T08:10:59.277Z,11.33
2022-11-14T08:13:31.133Z,10.77
2022-11-14T08:15:25.145Z,10.10
2022-11-14T08:17:26.808Z,11.13
2022-11-14T08:19:28.457Z,9.90
2022-11-14T08:21:30.276Z,9.83
2022-11-14T08:23:31.941Z,17.07
2022-11-14T08:25:33.778Z,9.83
2022-11-14T08:27:35.470Z,10.53
2022-11-14T08:29:37.095Z,10.33
2022-11-14T08:31:39.362Z,9.80
2022-11-14T08:33:41.015Z,10.93
2022-11-14T08:35:42.734Z,8.10
2022-11-14T08:37:44.615Z,10.27
2022-11-14T08:39:46.240Z,11.37
2022-11-14T08:41:47.900Z,11.40
2022-11-14T08:43:49.520Z,11.93
2022-11-14T08:45:51.391Z,12.43
2022-11-14T08:47:53.751Z,12.13
2022-11-14T08:49:55.448Z,9.40
2022-11-14T08:51:57.069Z,8.97
2022-11-14T08:53:58.690Z,10.93
2022-11-14T08:56:00.458Z,9.27
2022-11-14T08:58:02.097Z,9.83
2022-11-14T09:00:04.428Z,7.57
2022-11-14T09:02:06.356Z,8.63
2022-11-14T09:04:09.152Z,8.03
2022-11-14T09:06:11.058Z,9.40
2022-11-14T09:08:13.015Z,9.30
2022-11-14T09:10:14.953Z,8.23
2022-11-14T09:12:17.432Z,9.27
2022-11-14T09:14:19.047Z,10.47
2022-11-14T09:16:20.864Z,8.97
2022-11-14T09:18:22.579Z,8.10
2022-11-14T09:20:30.273Z,11.73
2022-11-14T09:22:34.080Z,18.23
2022-11-14T09:24:35.769Z,9.10
2022-11-14T09:26:37.648Z,6.53
2022-11-14T09:28:39.385Z,7.53
2022-11-14T09:30:42.034Z,7.10
2022-11-14T09:32:43.711Z,7.93
2022-11-14T09:34:45.595Z,6.03
2022-11-14T09:36:47.268Z,6.17
2022-11-14T09:38:51.015Z,9.00
2022-11-14T09:41:10.896Z,9.00
2022-11-14T09:43:29.498Z,9.50
2022-11-14T09:45:32.860Z,6.77
2022-11-14T09:47:49.646Z,8.27
2022-11-14T09:49:54.780Z,13.57
2022-11-14T09:52:38.278Z,12.60
2022-11-14T09:54:47.704Z,5.83
2022-11-14T09:56:49.876Z,5.73
2022-11-14T09:58:52.308Z,4.90
2022-11-14T10:01:15.084Z,6.40
2022-11-14T10:03:48.053Z,4.37
2022-11-14T10:06:25.276Z,4.40
2022-11-14T10:08:45.509Z,5.70
2022-11-14T10:10:54.240Z,3.00
2022-11-14T10:13:20.556Z,3.70
2022-11-14T10:15:33.891Z,2.67
2022-11-14T10:17:44.933Z,5.57
2022-11-14T10:20:13.790Z,5.27
2022-11-14T10:22:18.486Z,3.70
2022-11-14T10:24:41.972Z,3.33
2022-11-14T10:26:55.860Z,4.43
2022-11-14T10:29:29.091Z,3.90
2022-11-14T10:31:53.766Z,6.10
2022-11-14T10:34:19.607Z,4.17
2022-11-14T10:36:43.157Z,2.70
2022-11-14T10:38:54.147Z,3.50
2022-11-14T10:41:01.513Z,4.60
2022-11-14T10:43:45.313Z,2.90
2022-11-14T10:45:58.943Z,2.80
2022-11-14T10:48:08.973Z,4.43
2022-11-14T10:50:41.490Z,3.20
2022-11-14T10:52:45.415Z,2.77
2022-11-14T10:55:14.225Z,4.53
2022-11-14T10:57:19.197Z,4.33
2022-11-14T10:59:21.619Z,2.73
2022-11-14T11:01:37.012Z,3.67
2022-11-14T11:03:44.649Z,3.80
2022-11-14T11:05:49.894Z,2.83
2022-11-14T11:08:36.243Z,4.30
2022-11-14T11:10:53.336Z,4.57
2022-11-14T11:12:55.168Z,3.20
2022-11-14T11:15:15.111Z,5.80
2022-11-14T11:17:20.716Z,8.70
2022-11-14T11:19:24.701Z,2.83
2022-11-14T11:21:26.397Z,3.70
2022-11-14T11:23:28.141Z,2.97
2022-11-14T11:25:31.599Z,2.90
2022-11-14T11:27:33.335Z,3.23
2022-11-14T11:29:35.035Z,6.30
2022-11-14T11:31:51.723Z,3.03
2022-11-14T11:33:54.679Z,3.33
2022-11-14T11:36:05.613Z,3.43
2022-11-14T11:38:14.687Z,3.70
2022-11-14T11:40:22.769Z,3.00
2022-11-14T11:45:17.278Z,3.70
2022-11-14T11:47:19.955Z,3.20
2022-11-14T11:49:30.496Z,4.43
2022-11-14T11:51:37.418Z,3.70
2022-11-14T11:53:44.607Z,10.17
2022-11-14T11:55:53.376Z,2.33
2022-11-14T11:58:23.859Z,2.60
2022-11-14T12:00:25.656Z,4.23
2022-11-14T12:02:28.328Z,2.60
2022-11-14T12:04:30.748Z,2.30
2022-11-14T12:06:47.356Z,2.87
2022-11-14T12:09:03.886Z,2.60
2022-11-14T12:11:10.748Z,4.53
2022-11-14T12:13:42.836Z,4.90
2022-11-14T12:15:53.622Z,3.10
2022-11-14T12:18:13.336Z,4.90
2022-11-14T12:20:52.593Z,2.90
2022-11-14T12:23:10.370Z,3.33
2022-11-14T12:25:39.720Z,3.63
2022-11-14T12:27:59.723Z,2.57
2022-11-14T12:30:22.005Z,3.27
2022-11-14T12:32:50.248Z,4.67
2022-11-14T12:34:52.311Z,3.60
2022-11-14T12:36:54.368Z,13.33
2022-11-14T12:38:57.083Z,3.47
2022-11-14T12:41:00.671Z,3.77
2022-11-14T12:43:03.964Z,2.83
2022-11-14T12:45:54.356Z,3.80
2022-11-14T12:48:25.452Z,2.40
2022-11-14T12:50:40.282Z,3.40
2022-11-14T12:52:48.830Z,3.10
2022-11-14T12:54:51.440Z,3.23
2022-11-14T12:57:00.771Z,4.40
2022-11-14T12:59:21.185Z,3.97
2022-11-14T13:01:50.827Z,3.80
2022-11-14T13:04:16.162Z,3.23
2022-11-14T13:06:28.786Z,5.17
2022-11-14T13:09:00.014Z,3.90
2022-11-14T13:11:58.868Z,3.70
2022-11-14T13:14:21.001Z,3.43
2022-11-14T13:16:50.935Z,2.60
2022-11-14T13:19:29.251Z,2.83
2022-11-14T13:21:46.563Z,3.37
2022-11-14T13:23:48.209Z,3.00
2022-11-14T13:26:09.896Z,3.17
2022-11-14T13:28:36.268Z,14.10
2022-11-14T13:31:29.162Z,3.83
2022-11-14T13:33:44.792Z,2.60
2022-11-14T13:35:53.086Z,5.00
2022-11-14T13:38:45.101Z,4.07
2022-11-14T13:40:56.888Z,3.20
2022-11-14T13:43:12.801Z,3.30
2022-11-14T13:45:41.673Z,3.43
2022-11-14T13:48:14.135Z,4.17
2022-11-14T13:50:18.953Z,5.30
2022-11-14T13:52:21.591Z,4.30
2022-11-14T13:54:23.594Z,21.47
2022-11-14T13:56:50.181Z,12.33
2022-11-14T13:59:20.268Z,5.20
2022-11-14T14:02:03.436Z,7.03
2022-11-14T14:04:17.629Z,5.03
2022-11-14T14:06:31.141Z,5.80
2022-11-14T14:09:04.682Z,4.07
2022-11-14T14:11:24.193Z,4.30
2022-11-14T14:13:43.359Z,3.50
2022-11-14T14:15:53.449Z,5.73
2022-11-14T14:18:12.035Z,2.97
2022-11-14T14:20:38.014Z,6.90
2022-11-14T14:22:57.173Z,3.43
2022-11-14T14:25:18.988Z,3.23
2022-11-14T14:27:54.081Z,7.03
2022-11-14T14:30:04.328Z,7.90
2022-11-14T14:32:17.884Z,4.00
2022-11-14T14:34:29.840Z,4.43
2022-11-14T14:36:31.856Z,6.73
2022-11-14T14:38:35.648Z,8.50
2022-11-14T14:40:40.117Z,4.43
2022-11-14T14:42:46.676Z,5.23
2022-11-14T14:44:48.836Z,7.53
2022-11-14T14:46:51.403Z,6.03
2022-11-14T14:48:53.181Z,4.37
2022-11-14T14:50:56.825Z,3.33
2022-11-14T14:53:00.475Z,3.27
2022-11-14T14:55:03.088Z,5.37
2022-11-14T14:57:05.490Z,4.47
2022-11-14T14:59:18.385Z,4.07
2022-11-14T15:01:28.124Z,6.13
2022-11-14T15:03:40.617Z,3.60
2022-11-14T15:05:42.308Z,3.70
2022-11-14T15:07:46.394Z,3.43
2022-11-14T15:09:59.409Z,3.83
2022-11-14T15:12:02.788Z,4.57
2022-11-14T15:14:05.296Z,3.57
2022-11-14T15:16:08.011Z,5.70
2022-11-14T15:18:25.076Z,4.97
2022-11-14T15:20:29.402Z,6.00
2022-11-14T15:22:32.823Z,4.00
2022-11-14T15:24:34.536Z,3.27
2022-11-14T15:26:36.407Z,4.20
2022-11-14T15:28:38.013Z,4.77
2022-11-14T15:30:39.731Z,7.10
2022-11-14T15:32:50.082Z,3.30
2022-11-14T15:35:31.992Z,3.60
2022-11-14T15:37:33.953Z,4.33
2022-11-14T15:39:36.839Z,3.90
2022-11-14T15:41:38.523Z,4.77
2022-11-14T15:43:43.033Z,3.83
2022-11-14T15:45:44.700Z,3.87
2022-11-14T15:47:46.552Z,4.00
2022-11-14T15:50:05.047Z,3.43
2022-11-14T15:52:23.473Z,4.40
2022-11-14T15:54:33.072Z,2.93
2022-11-14T15:56:34.727Z,11.37
2022-11-14T15:58:36.436Z,3.43
2022-11-14T16:00:47.739Z,4.17
2022-11-14T16:02:57.540Z,6.20
2022-11-14T16:05:01.066Z,6.70
2022-11-14T16:07:02.864Z,4.13
2022-11-14T16:09:04.594Z,4.70
2022-11-14T16:11:06.422Z,5.50
2022-11-14T16:13:08.170Z,4.17
2022-11-14T16:15:10.924Z,5.07
2022-11-14T16:17:14.521Z,4.80
2022-11-14T16:19:17.103Z,4.77
2022-11-14T16:21:18.782Z,5.07
2022-11-14T16:23:20.504Z,5.73
2022-11-14T16:25:27.018Z,3.50
2022-11-14T16:27:28.631Z,5.20
2022-11-14T16:29:30.792Z,8.07
2022-11-14T16:31:32.428Z,6.70
2022-11-14T16:33:34.034Z,2.87
2022-11-14T16:35:35.720Z,3.67
2022-11-14T16:37:37.621Z,4.40
2022-11-14T16:39:39.588Z,4.27
2022-11-14T16:41:41.725Z,6.03
2022-11-14T16:43:43.939Z,4.23
2022-11-14T16:45:45.556Z,4.03
2022-11-14T16:47:48.381Z,4.20
2022-11-14T16:49:50.105Z,5.63
2022-11-14T16:51:52.290Z,3.20
2022-11-14T16:53:56.827Z,4.30
2022-11-14T16:55:58.672Z,5.33
2022-11-14T16:58:00.321Z,3.30
2022-11-14T17:00:02.044Z,4.27
2022-11-14T17:02:04.845Z,6.03
2022-11-14T17:04:06.772Z,5.13
2022-11-14T17:06:10.604Z,4.10
2022-11-14T17:08:12.384Z,4.47
2022-11-14T17:10:14.043Z,3.70
2022-11-14T17:12:15.881Z,3.23
2022-11-14T17:14:17.545Z,4.80
2022-11-14T17:16:19.212Z,5.70
2022-11-14T17:18:20.929Z,3.80
2022-11-14T17:20:22.553Z,4.00
2022-11-14T17:22:24.596Z,7.60
2022-11-14T17:24:31.231Z,6.00
2022-11-14T17:26:33.258Z,4.53
2022-11-14T17:28:35.339Z,4.17
2022-11-14T17:30:43.515Z,5.40
2022-11-14T17:32:45.255Z,5.90
2022-11-14T17:34:46.928Z,5.20
2022-11-14T17:36:48.633Z,6.33
2022-11-14T17:38:50.577Z,4.63
2022-11-14T17:40:58.092Z,5.90
2022-11-14T17:42:59.788Z,5.00
2022-11-14T17:45:01.860Z,4.20
2022-11-14T17:47:03.517Z,4.70
2022-11-14T17:49:05.260Z,3.60
2022-11-14T17:51:10.269Z,4.60
2022-11-14T17:53:11.930Z,7.80
2022-11-14T17:55:13.536Z,7.20
2022-11-14T17:57:15.235Z,6.20
2022-11-14T17:59:20.376Z,7.07
2022-11-14T18:01:24.427Z,7.53
2022-11-14T18:03:27.152Z,5.80
2022-11-14T18:05:28.793Z,3.90
2022-11-14T18:07:30.678Z,5.40
2022-11-14T18:09:32.362Z,5.73
2022-11-14T18:11:35.029Z,6.23
2022-11-14T18:13:37.271Z,6.03
2022-11-14T18:15:39.218Z,6.77
2022-11-14T18:17:41.626Z,6.13
2022-11-14T18:19:43.293Z,4.30
2022-11-14T18:21:49.142Z,5.80
2022-11-14T18:23:56.005Z,3.43
2022-11-14T18:25:57.656Z,5.70
2022-11-14T18:27:59.342Z,8.67
2022-11-14T18:30:13.852Z,4.60
2022-11-14T18:32:22.786Z,7.07
2022-11-14T18:34:24.830Z,4.63
2022-11-14T18:36:26.489Z,5.63
2022-11-14T18:38:32.963Z,7.83
2022-11-14T18:40:35.081Z,4.67
2022-11-14T18:42:36.728Z,4.90
2022-11-14T18:44:38.555Z,4.93
2022-11-14T18:46:40.500Z,3.50
2022-11-14T18:48:44.374Z,5.20
2022-11-14T18:50:46.387Z,5.10
2022-11-14T18:52:48.067Z,4.50
2022-11-14T18:54:49.744Z,4.93
2022-11-14T18:56:51.860Z,6.00
2022-11-14T18:58:55.912Z,5.00
2022-11-14T19:00:57.702Z,4.50
2022-11-14T19:03:03.552Z,5.40
2022-11-14T19:05:08.055Z,4.07
2022-11-14T19:07:10.134Z,4.20
2022-11-14T19:09:15.947Z,5.00
2022-11-14T19:11:37.368Z,5.03
2022-11-14T19:13:39.012Z,4.80
2022-11-14T19:15:42.522Z,8.20
2022-11-14T19:17:46.725Z,6.90
2022-11-14T19:19:50.080Z,11.73
2022-11-14T19:21:51.927Z,16.20
2022-11-14T19:23:54.596Z,10.63
2022-11-14T19:25:59.662Z,22.47
2022-11-14T19:28:01.395Z,13.93
2022-11-14T19:30:03.237Z,20.60
2022-11-14T19:32:05.460Z,14.13
2022-11-14T19:34:07.745Z,22.37
2022-11-14T19:36:12.551Z,31.37
2022-11-14T19:38:14.199Z,23.77
2022-11-14T19:40:15.964Z,22.47
2022-11-14T19:42:17.575Z,5.37
2022-11-14T19:44:19.285Z,21.10
2022-11-14T19:46:21.800Z,18.53
2022-11-14T19:48:23.436Z,9.13
2022-11-14T19:50:25.689Z,5.70
2022-11-14T19:52:27.370Z,9.17
2022-11-14T19:54:29.042Z,10.10
2022-11-14T19:56:30.654Z,5.20
2022-11-14T19:58:32.337Z,4.63
2022-11-14T20:00:34.009Z,5.80
2022-11-14T20:02:39.458Z,5.50
2022-11-14T20:04:43.151Z,7.77
2022-11-14T20:06:45.478Z,4.20
2022-11-14T20:08:47.458Z,7.87
2022-11-14T20:11:03.265Z,5.00
2022-11-14T20:13:04.907Z,4.73
2022-11-14T20:15:07.168Z,5.13
2022-11-14T20:17:08.895Z,7.17
2022-11-14T20:19:10.579Z,6.70
2022-11-14T20:21:14.304Z,9.90
2022-11-14T20:23:16.022Z,9.07
2022-11-14T20:25:17.696Z,5.83
2022-11-14T20:27:20.073Z,4.87
2022-11-14T20:29:21.845Z,5.10
2022-11-14T20:31:27.184Z,7.90
2022-11-14T20:33:30.551Z,8.23
2022-11-14T20:35:37.969Z,6.00
2022-11-14T20:37:39.643Z,7.83
2022-11-14T20:39:41.333Z,4.20
2022-11-14T20:41:43.172Z,5.10
2022-11-14T20:43:44.877Z,4.70
2022-11-14T20:46:17.263Z,6.40
2022-11-14T20:48:18.933Z,4.80
2022-11-14T20:50:20.857Z,4.57
2022-11-14T20:52:22.673Z,6.10
2022-11-14T20:54:25.401Z,4.70
2022-11-14T20:56:27.097Z,4.97
2022-11-14T20:58:28.753Z,5.77
2022-11-14T21:00:30.465Z,7.77
2022-11-14T21:02:32.916Z,4.70
2022-11-14T21:04:34.604Z,4.07
2022-11-14T21:06:36.295Z,5.43
2022-11-14T21:08:38.407Z,6.70
2022-11-14T21:10:48.548Z,5.50
2022-11-14T21:13:10.220Z,4.73
2022-11-14T21:15:11.913Z,11.40
2022-11-14T21:17:13.660Z,5.20
2022-11-14T21:19:15.540Z,4.93
2022-11-14T21:21:19.457Z,6.10
2022-11-14T21:23:21.065Z,4.17
2022-11-14T21:25:22.857Z,4.03
2022-11-14T21:27:24.539Z,4.73
2022-11-14T21:29:27.280Z,8.63
2022-11-14T21:31:32.221Z,6.23
2022-11-14T21:33:34.264Z,5.40
2022-11-14T21:35:36.092Z,4.17
2022-11-14T21:37:37.788Z,6.77
2022-11-14T21:39:39.417Z,3.70
2022-11-14T21:41:41.704Z,5.40
2022-11-14T21:43:44.138Z,4.10
2022-11-14T21:45:58.859Z,4.40
2022-11-14T21:48:00.480Z,5.00
2022-11-14T21:50:02.199Z,4.43
2022-11-14T21:52:03.935Z,3.77
2022-11-14T21:54:06.402Z,9.00
2022-11-14T21:56:10.929Z,6.40
2022-11-14T21:58:13.164Z,4.43
2022-11-14T22:00:15.284Z,5.57
2022-11-14T22:02:35.529Z,4.70
2022-11-14T22:04:37.740Z,6.70
2022-11-14T22:06:43.900Z,6.40
2022-11-14T22:08:45.615Z,5.27
2022-11-14T22:10:47.340Z,3.80
2022-11-14T22:12:49.369Z,3.53
2022-11-14T22:14:51.060Z,5.03
2022-11-14T22:16:52.845Z,5.20
2022-11-14T22:18:59.184Z,5.20
2022-11-14T22:21:04.114Z,5.07
2022-11-14T22:23:05.749Z,3.50
2022-11-14T22:25:07.630Z,4.13
2022-11-14T22:27:09.291Z,3.60
2022-11-14T22:29:10.888Z,5.13
2022-11-14T22:31:19.671Z,4.27
2022-11-14T22:33:21.277Z,4.20
2022-11-14T22:35:22.923Z,5.03
2022-11-14T22:37:24.580Z,5.50
2022-11-14T22:39:26.169Z,5.60
2022-11-14T22:41:33.582Z,5.43
2022-11-14T22:43:35.683Z,5.90
2022-11-14T22:45:37.338Z,5.47
2022-11-14T22:47:38.949Z,4.57
2022-11-14T22:49:40.544Z,4.10
2022-11-14T22:51:42.233Z,4.27
2022-11-14T22:53:47.956Z,5.53
2022-11-14T22:55:49.616Z,4.20
2022-11-14T22:57:51.251Z,3.00
2022-11-14T22:59:52.921Z,8.30
2022-11-14T23:01:55.212Z,4.60
2022-11-14T23:03:59.381Z,4.50
2022-11-14T23:06:07.552Z,3.83
2022-11-14T23:08:09.190Z,4.63
2022-11-14T23:10:11.240Z,3.87
2022-11-14T23:12:12.863Z,4.23
2022-11-14T23:14:14.640Z,3.07
2022-11-14T23:16:21.913Z,9.93
2022-11-14T23:18:23.867Z,4.10
2022-11-14T23:20:26.332Z,4.00
2022-11-14T23:22:28.167Z,3.57
2022-11-14T23:24:29.800Z,4.67
2022-11-14T23:26:32.844Z,4.23
2022-11-14T23:28:34.614Z,4.33
2022-11-14T23:30:36.369Z,4.90
2022-11-14T23:32:38.114Z,5.93
2022-11-14T23:34:39.836Z,5.43
2022-11-14T23:36:41.488Z,5.60
2022-11-14T23:38:43.207Z,3.73
2022-11-14T23:40:50.976Z,5.37
2022-11-14T23:42:52.632Z,3.47
2022-11-14T23:44:54.604Z,3.87
2022-11-14T23:46:56.236Z,4.20
2022-11-14T23:48:57.892Z,3.80
2022-11-14T23:50:59.581Z,3.50
2022-11-14T23:53:01.199Z,4.40
2022-11-14T23:55:02.966Z,5.73
2022-11-14T23:57:04.898Z,3.93
2022-11-14T23:59:06.809Z,3.47
